createdAt,value
2019-02-16T00:00:35.888Z,-1.68
2019-02-16T00:03:43.835Z,-1.44
2019-02-16T00:06:52.161Z,-1.36
2019-02-16T00:10:00.247Z,-1.42
2019-02-16T00:13:08.991Z,-1.31
2019-02-16T00:16:17.259Z,-1.50
2019-02-16T00:19:25.073Z,-1.51
2019-02-16T00:22:33.256Z,-1.54
2019-02-16T00:25:41.010Z,-1.50
2019-02-16T00:28:48.747Z,-1.57
2019-02-16T00:31:56.270Z,-1.54
2019-02-16T00:35:03.939Z,-1.48
2019-02-16T00:38:12.079Z,-1.42
2019-02-16T00:41:19.404Z,-1.27
2019-02-16T00:44:27.304Z,-1.53
2019-02-16T00:47:35.088Z,-1.61
2019-02-16T00:50:42.827Z,-1.74
2019-02-16T00:53:51.315Z,-1.75
2019-02-16T00:56:59.339Z,-1.60
2019-02-16T01:00:08.689Z,-1.63
2019-02-16T01:03:16.644Z,-1.67
2019-02-16T01:06:24.773Z,-1.60
2019-02-16T01:09:32.294Z,-1.38
2019-02-16T01:12:40.164Z,-1.36
2019-02-16T01:15:48.380Z,-1.50
2019-02-16T01:18:56.134Z,-1.46
2019-02-16T01:22:03.884Z,-1.47
2019-02-16T01:25:12.810Z,-1.60
2019-02-16T01:28:20.494Z,-1.67
2019-02-16T01:31:28.378Z,-1.52
2019-02-16T01:34:36.820Z,-1.57
2019-02-16T01:37:45.056Z,-1.73
2019-02-16T01:40:53.777Z,-1.83
2019-02-16T01:44:02.702Z,-1.86
2019-02-16T01:47:10.445Z,-1.89
2019-02-16T01:50:18.604Z,-1.88
2019-02-16T01:53:26.653Z,-1.91
2019-02-16T01:56:34.319Z,-1.79
2019-02-16T01:59:42.070Z,-1.63
2019-02-16T02:02:49.941Z,-1.56
2019-02-16T02:05:58.279Z,-1.70
2019-02-16T02:09:06.470Z,-1.66
2019-02-16T02:12:14.588Z,-1.73
2019-02-16T02:15:22.403Z,-1.76
2019-02-16T02:18:30.256Z,-1.69
2019-02-16T02:21:41.257Z,-1.71
2019-02-16T02:24:51.061Z,-1.62
2019-02-16T02:27:58.220Z,-1.31
2019-02-16T02:31:06.312Z,-1.56
2019-02-16T02:34:13.873Z,-1.85
2019-02-16T02:37:22.223Z,-2.29
2019-02-16T02:40:30.459Z,-2.46
2019-02-16T02:43:37.845Z,-2.42
2019-02-16T02:46:45.019Z,-2.21
2019-02-16T02:49:52.611Z,-2.44
2019-02-16T02:52:59.790Z,-2.49
2019-02-16T02:56:07.094Z,-2.29
2019-02-16T02:59:14.593Z,-2.07
2019-02-16T03:02:22.088Z,-2.06
2019-02-16T03:05:29.241Z,-2.19
2019-02-16T03:08:36.402Z,-2.44
2019-02-16T03:11:43.797Z,-2.49
2019-02-16T03:14:50.945Z,-2.58
2019-02-16T03:17:58.105Z,-2.49
2019-02-16T03:21:05.263Z,-2.66
2019-02-16T03:24:12.412Z,-2.59
2019-02-16T03:28:13.608Z,-2.39
2019-02-16T03:32:30.168Z,-2.39
2019-02-16T03:36:32.259Z,-2.64
2019-02-16T03:39:44.037Z,-2.78
2019-02-16T03:42:51.214Z,-2.73
2019-02-16T03:45:58.361Z,-2.81
2019-02-16T03:49:05.559Z,-2.81
2019-02-16T03:52:14.284Z,-2.81
2019-02-16T03:55:21.933Z,-2.88
2019-02-16T03:58:29.094Z,-2.81
2019-02-16T04:01:36.284Z,-2.79
2019-02-16T04:04:43.709Z,-2.91
2019-02-16T04:07:50.866Z,-3.05
2019-02-16T04:10:58.021Z,-3.00
2019-02-16T04:14:05.182Z,-3.02
2019-02-16T04:17:12.673Z,-2.98
2019-02-16T04:20:20.331Z,-3.03
2019-02-16T04:23:27.494Z,-3.07
2019-02-16T04:26:34.885Z,-3.03
2019-02-16T04:29:42.342Z,-3.03
2019-02-16T04:32:49.500Z,-2.83
2019-02-16T04:35:56.690Z,-3.01
2019-02-16T04:39:05.125Z,-3.22
2019-02-16T04:42:12.543Z,-3.42
2019-02-16T04:45:20.224Z,-3.47
2019-02-16T04:48:27.728Z,-3.44
2019-02-16T04:51:35.002Z,-3.08
2019-02-16T04:54:42.274Z,-3.22
2019-02-16T04:57:49.656Z,-3.35
2019-02-16T05:00:57.197Z,-3.09
2019-02-16T05:04:04.902Z,-3.32
2019-02-16T05:07:12.366Z,-3.39
2019-02-16T05:10:19.720Z,-3.38
2019-02-16T05:13:26.934Z,-3.34
2019-02-16T05:16:34.082Z,-3.24
2019-02-16T05:19:41.811Z,-3.46
2019-02-16T05:22:49.055Z,-3.64
2019-02-16T05:25:56.306Z,-3.59
2019-02-16T05:29:03.460Z,-3.76
2019-02-16T05:32:10.973Z,-3.68
2019-02-16T05:35:18.189Z,-3.62
2019-02-16T05:38:25.356Z,-3.71
2019-02-16T05:41:32.745Z,-3.65
2019-02-16T05:44:39.923Z,-3.47
2019-02-16T05:47:47.489Z,-3.42
2019-02-16T05:50:54.660Z,-3.45
2019-02-16T05:54:01.937Z,-3.45
2019-02-16T05:57:09.359Z,-3.50
2019-02-16T06:00:18.809Z,-3.49
2019-02-16T06:03:26.302Z,-3.45
2019-02-16T06:06:33.466Z,-3.49
2019-02-16T06:09:41.291Z,-3.56
2019-02-16T06:12:48.576Z,-3.64
2019-02-16T06:15:56.528Z,-3.54
2019-02-16T06:19:03.812Z,-3.55
2019-02-16T06:22:11.126Z,-3.28
2019-02-16T06:25:18.586Z,-3.36
2019-02-16T06:28:26.065Z,-3.46
2019-02-16T06:31:33.346Z,-3.47
2019-02-16T06:34:40.726Z,-3.57
2019-02-16T06:37:48.458Z,-3.41
2019-02-16T06:40:56.241Z,-3.43
2019-02-16T06:44:04.277Z,-3.53
2019-02-16T06:47:12.307Z,-3.47
2019-02-16T06:50:19.901Z,-3.39
2019-02-16T06:53:27.978Z,-3.26
2019-02-16T06:56:44.997Z,-3.10
2019-02-16T06:59:52.735Z,-3.09
2019-02-16T07:03:00.303Z,-2.99
2019-02-16T07:06:07.522Z,-2.88
2019-02-16T07:09:15.105Z,-2.77
2019-02-16T07:12:22.389Z,-2.62
2019-02-16T07:15:30.184Z,-2.03
2019-02-16T07:18:52.114Z,-1.65
2019-02-16T07:21:59.546Z,-1.26
2019-02-16T07:25:07.413Z,-0.73
2019-02-16T07:28:14.928Z,-0.37
2019-02-16T07:31:22.098Z,-0.08
2019-02-16T07:34:29.950Z,0.17
2019-02-16T07:37:40.713Z,0.33
2019-02-16T07:40:49.586Z,0.51
2019-02-16T07:44:11.837Z,0.63
2019-02-16T07:47:46.814Z,0.58
2019-02-16T07:51:09.512Z,0.72
2019-02-16T07:54:28.833Z,1.05
2019-02-16T07:57:58.828Z,1.19
2019-02-16T08:01:37.980Z,1.45
2019-02-16T08:05:03.877Z,1.83
2019-02-16T08:08:36.403Z,2.12
2019-02-16T08:11:52.026Z,2.45
2019-02-16T08:15:07.917Z,2.99
2019-02-16T08:18:25.112Z,2.98
2019-02-16T08:21:50.623Z,3.16
2019-02-16T08:25:08.463Z,3.37
2019-02-16T08:28:30.228Z,3.72
2019-02-16T08:31:47.221Z,4.12
2019-02-16T08:35:02.704Z,4.42
2019-02-16T08:38:35.781Z,4.50
2019-02-16T08:42:02.603Z,4.67
2019-02-16T08:45:38.894Z,4.94
2019-02-16T08:49:05.714Z,5.15
2019-02-16T08:52:19.025Z,5.50
2019-02-16T08:55:38.512Z,5.70
2019-02-16T08:59:04.643Z,6.02
2019-02-16T09:02:20.962Z,6.11
2019-02-16T09:05:33.805Z,6.29
2019-02-16T09:09:00.620Z,6.43
2019-02-16T09:12:20.260Z,6.55
2019-02-16T09:15:50.106Z,6.60
2019-02-16T09:19:04.069Z,6.79
2019-02-16T09:22:24.150Z,6.93
2019-02-16T09:25:41.088Z,7.09
2019-02-16T09:29:06.815Z,7.28
2019-02-16T09:32:43.155Z,7.51
2019-02-16T09:36:22.407Z,7.67
2019-02-16T09:39:52.548Z,7.85
2019-02-16T09:43:10.289Z,8.08
2019-02-16T09:46:49.280Z,8.24
2019-02-16T09:50:07.778Z,8.46
2019-02-16T09:53:30.532Z,8.65
2019-02-16T09:57:04.210Z,8.85
2019-02-16T10:00:34.185Z,9.08
2019-02-16T10:03:52.495Z,9.32
2019-02-16T10:07:09.312Z,9.55
2019-02-16T10:10:35.033Z,9.83
2019-02-16T10:14:01.026Z,10.01
2019-02-16T10:17:27.796Z,10.20
2019-02-16T10:21:04.517Z,10.45
2019-02-16T10:24:30.407Z,10.67
2019-02-16T10:28:03.537Z,10.86
2019-02-16T10:31:24.615Z,11.01
2019-02-16T10:35:09.839Z,11.24
2019-02-16T10:38:39.795Z,11.37
2019-02-16T10:42:25.105Z,11.45
2019-02-16T10:45:44.685Z,11.57
2019-02-16T10:49:08.704Z,11.69
2019-02-16T10:52:34.878Z,11.77
2019-02-16T10:56:01.166Z,11.71
2019-02-16T10:59:23.218Z,11.77
2019-02-16T11:02:49.363Z,11.95
2019-02-16T11:06:16.691Z,11.98
2019-02-16T11:09:45.075Z,12.05
2019-02-16T11:13:18.377Z,12.21
2019-02-16T11:16:43.800Z,12.16
2019-02-16T11:20:20.632Z,12.26
2019-02-16T11:23:48.045Z,12.27
2019-02-16T11:27:13.777Z,12.28
2019-02-16T11:30:43.870Z,12.32
2019-02-16T11:34:10.008Z,11.91
2019-02-16T11:37:37.310Z,11.68
2019-02-16T11:41:03.515Z,11.58
2019-02-16T11:44:26.358Z,11.61
2019-02-16T11:47:43.703Z,11.66
2019-02-16T11:51:07.206Z,11.81
2019-02-16T11:54:30.604Z,11.88
2019-02-16T11:58:12.637Z,11.90
2019-02-16T12:01:33.264Z,11.83
2019-02-16T12:04:47.638Z,11.84
2019-02-16T12:08:20.894Z,11.88
2019-02-16T12:12:06.267Z,11.96
2019-02-16T12:15:45.277Z,12.16
2019-02-16T12:19:18.237Z,12.25
2019-02-16T12:22:43.839Z,12.20
2019-02-16T12:26:09.623Z,12.20
2019-02-16T12:29:36.706Z,12.30
2019-02-16T12:32:51.106Z,12.28
2019-02-16T12:36:22.018Z,12.65
2019-02-16T12:39:51.530Z,12.61
2019-02-16T12:43:13.229Z,12.59
2019-02-16T12:46:29.085Z,12.77
2019-02-16T12:49:52.795Z,12.78
2019-02-16T12:53:20.403Z,12.88
2019-02-16T12:56:35.886Z,12.81
2019-02-16T12:59:49.701Z,12.92
2019-02-16T13:03:20.052Z,12.85
2019-02-16T13:06:45.611Z,12.68
2019-02-16T13:10:21.650Z,12.61
2019-02-16T13:13:35.393Z,12.57
2019-02-16T13:17:04.928Z,12.70
2019-02-16T13:20:40.864Z,12.62
2019-02-16T13:24:10.474Z,12.67
2019-02-16T13:27:37.312Z,12.69
2019-02-16T13:31:02.505Z,12.66
2019-02-16T13:34:15.878Z,12.61
2019-02-16T13:37:44.780Z,12.66
2019-02-16T13:40:57.509Z,12.64
2019-02-16T13:44:17.123Z,12.53
2019-02-16T13:47:27.464Z,12.67
2019-02-16T13:50:42.129Z,12.57
2019-02-16T13:53:58.657Z,12.47
2019-02-16T13:57:12.455Z,12.38
2019-02-16T14:00:24.750Z,12.38
2019-02-16T14:03:55.366Z,12.51
2019-02-16T14:07:29.612Z,12.46
2019-02-16T14:11:04.935Z,12.39
2019-02-16T14:14:30.302Z,12.32
2019-02-16T14:17:43.278Z,12.25
2019-02-16T14:20:50.773Z,12.23
2019-02-16T14:23:58.433Z,12.34
2019-02-16T14:27:06.499Z,12.34
2019-02-16T14:30:14.282Z,12.26
2019-02-16T14:33:21.479Z,12.22
2019-02-16T14:36:29.357Z,12.36
2019-02-16T14:39:38.640Z,12.45
2019-02-16T14:42:46.726Z,12.33
2019-02-16T14:45:54.472Z,12.23
2019-02-16T14:49:01.977Z,12.22
2019-02-16T14:52:09.366Z,12.11
2019-02-16T14:55:16.822Z,12.13
2019-02-16T14:58:24.226Z,12.03
2019-02-16T15:01:31.724Z,12.07
2019-02-16T15:04:40.507Z,11.97
2019-02-16T15:07:48.175Z,11.88
2019-02-16T15:10:55.983Z,11.78
2019-02-16T15:14:03.556Z,11.68
2019-02-16T15:17:11.059Z,11.56
2019-02-16T15:20:18.550Z,11.52
2019-02-16T15:23:26.157Z,11.49
2019-02-16T15:26:33.737Z,11.37
2019-02-16T15:29:41.444Z,11.32
2019-02-16T15:32:49.491Z,11.10
2019-02-16T15:35:57.063Z,10.96
2019-02-16T15:39:08.107Z,10.77
2019-02-16T15:42:17.148Z,10.80
2019-02-16T15:45:26.027Z,10.66
2019-02-16T15:48:34.015Z,10.50
2019-02-16T15:51:42.839Z,10.40
2019-02-16T15:54:50.851Z,10.24
2019-02-16T15:57:58.296Z,10.05
2019-02-16T16:01:05.918Z,9.86
2019-02-16T16:04:13.220Z,9.72
2019-02-16T16:07:20.503Z,9.61
2019-02-16T16:10:31.754Z,9.45
2019-02-16T16:13:58.909Z,9.21
2019-02-16T16:17:41.714Z,8.92
2019-02-16T16:20:58.341Z,8.69
2019-02-16T16:24:34.867Z,8.43
2019-02-16T16:28:05.080Z,8.35
2019-02-16T16:31:31.329Z,8.29
2019-02-16T16:35:01.352Z,8.03
2019-02-16T16:38:24.639Z,7.80
2019-02-16T16:41:57.417Z,7.42
2019-02-16T16:45:26.346Z,7.18
2019-02-16T16:48:53.792Z,6.88
2019-02-16T16:52:21.211Z,6.64
2019-02-16T16:55:55.259Z,6.29
2019-02-16T16:59:22.737Z,6.04
2019-02-16T17:02:50.134Z,5.98
2019-02-16T17:06:20.307Z,5.78
2019-02-16T17:10:02.301Z,5.56
2019-02-16T17:13:17.896Z,5.78
2019-02-16T17:16:40.119Z,5.40
2019-02-16T17:20:16.726Z,4.98
2019-02-16T17:23:34.590Z,4.67
2019-02-16T17:26:50.915Z,4.50
2019-02-16T17:30:10.716Z,4.38
2019-02-16T17:33:30.356Z,4.18
2019-02-16T17:37:03.467Z,4.07
2019-02-16T17:40:32.736Z,3.90
2019-02-16T17:43:58.666Z,3.74
2019-02-16T17:47:35.033Z,3.52
2019-02-16T17:51:01.052Z,3.43
2019-02-16T17:54:20.944Z,3.21
2019-02-16T17:57:36.157Z,3.05
2019-02-16T18:01:01.566Z,2.99
2019-02-16T18:04:26.974Z,2.99
2019-02-16T18:07:52.947Z,2.77
2019-02-16T18:11:10.994Z,2.61
2019-02-16T18:14:25.901Z,2.59
2019-02-16T18:17:42.580Z,2.46
2019-02-16T18:21:08.351Z,2.38
2019-02-16T18:24:31.966Z,2.29
2019-02-16T18:27:48.103Z,2.16
2019-02-16T18:31:23.298Z,2.14
2019-02-16T18:34:48.008Z,2.22
2019-02-16T18:38:02.804Z,2.07
2019-02-16T18:41:34.364Z,2.02
2019-02-16T18:45:01.111Z,2.00
2019-02-16T18:48:28.153Z,2.17
2019-02-16T18:51:48.084Z,2.15
2019-02-16T18:55:15.225Z,2.09
2019-02-16T18:58:45.027Z,2.15
2019-02-16T19:01:59.215Z,2.23
2019-02-16T19:05:19.853Z,2.58
2019-02-16T19:08:39.926Z,2.10
2019-02-16T19:11:55.285Z,1.82
2019-02-16T19:15:25.505Z,1.84
2019-02-16T19:18:58.705Z,1.75
2019-02-16T19:22:15.267Z,1.67
2019-02-16T19:25:33.515Z,1.69
2019-02-16T19:29:18.896Z,1.66
2019-02-16T19:32:58.495Z,1.61
2019-02-16T19:36:19.736Z,1.59
2019-02-16T19:39:34.749Z,1.47
2019-02-16T19:42:49.549Z,1.33
2019-02-16T19:46:06.682Z,1.23
2019-02-16T19:49:30.865Z,1.12
2019-02-16T19:53:06.727Z,1.09
2019-02-16T19:56:34.394Z,1.10
2019-02-16T19:59:54.446Z,0.98
2019-02-16T20:03:18.799Z,0.99
2019-02-16T20:06:42.255Z,0.94
2019-02-16T20:09:56.245Z,0.85
2019-02-16T20:13:29.125Z,0.85
2019-02-16T20:17:08.668Z,0.72
2019-02-16T20:20:36.555Z,0.61
2019-02-16T20:24:06.692Z,0.54
2019-02-16T20:27:37.308Z,0.68
2019-02-16T20:31:01.204Z,0.56
2019-02-16T20:34:31.309Z,0.54
2019-02-16T20:37:51.883Z,0.42
2019-02-16T20:41:09.566Z,0.31
2019-02-16T20:44:39.343Z,0.48
2019-02-16T20:47:54.685Z,0.65
2019-02-16T20:51:20.519Z,0.44
2019-02-16T20:54:53.096Z,0.47
2019-02-16T20:58:16.920Z,0.41
2019-02-16T21:01:43.984Z,0.33
2019-02-16T21:05:20.733Z,0.31
2019-02-16T21:08:37.103Z,0.35
2019-02-16T21:11:51.325Z,0.30
2019-02-16T21:15:17.148Z,0.20
2019-02-16T21:18:36.762Z,0.20
2019-02-16T21:22:00.424Z,0.18
2019-02-16T21:25:14.118Z,0.15
2019-02-16T21:28:41.562Z,0.12
2019-02-16T21:32:06.399Z,0.04
2019-02-16T21:35:33.222Z,0.20
2019-02-16T21:39:03.103Z,0.23
2019-02-16T21:42:25.638Z,0.25
2019-02-16T21:45:40.583Z,0.22
2019-02-16T21:49:06.231Z,0.19
2019-02-16T21:52:21.673Z,0.15
2019-02-16T21:55:47.361Z,0.06
2019-02-16T21:59:19.500Z,0.27
2019-02-16T22:02:47.140Z,0.27
2019-02-16T22:06:21.492Z,0.21
2019-02-16T22:09:55.586Z,0.27
2019-02-16T22:13:05.704Z,0.29
2019-02-16T22:16:13.814Z,0.41
2019-02-16T22:19:21.479Z,0.34
2019-02-16T22:22:29.738Z,0.25
2019-02-16T22:25:37.572Z,0.20
2019-02-16T22:28:45.295Z,0.17
2019-02-16T22:31:52.719Z,0.17
2019-02-16T22:35:00.317Z,0.20
2019-02-16T22:38:07.868Z,0.19
2019-02-16T22:41:15.388Z,0.30
2019-02-16T22:44:23.266Z,0.34
2019-02-16T22:47:30.689Z,0.48
2019-02-16T22:50:39.765Z,0.45
2019-02-16T22:53:48.466Z,0.21
2019-02-16T22:56:56.184Z,0.16
2019-02-16T23:00:09.257Z,0.08
2019-02-16T23:03:16.856Z,0.09
2019-02-16T23:06:24.747Z,0.11
2019-02-16T23:09:31.956Z,-0.01
2019-02-16T23:12:39.742Z,-0.08
2019-02-16T23:15:47.502Z,-0.16
2019-02-16T23:18:54.680Z,-0.25
2019-02-16T23:22:02.147Z,-0.28
2019-02-16T23:25:09.614Z,-0.31
2019-02-16T23:28:16.804Z,-0.39
2019-02-16T23:31:24.217Z,-0.45
2019-02-16T23:34:31.704Z,-0.49
2019-02-16T23:37:38.874Z,-0.55
2019-02-16T23:40:46.234Z,-0.55
2019-02-16T23:43:53.786Z,-0.56
2019-02-16T23:47:01.284Z,-0.61
2019-02-16T23:50:08.983Z,-0.62
2019-02-16T23:53:16.254Z,-0.77
2019-02-16T23:56:23.455Z,-0.76
2019-02-16T23:59:31.885Z,-0.81
